sensor_id;sensor_type;location;lat;lon;timestamp;pressure;altitude;pressure_sealevel;temperature;humidity
11172;BME280;5642;50.830;12.082;2024-01-25T00:00:43;99998.78;;;13.23;43.24
11172;BME280;5642;50.830;12.082;2024-01-25T00:03:10;100058.25;;;13.55;43.14
11172;BME280;5642;50.830;12.082;2024-01-25T00:05:37;100077.16;;;13.66;43.21
11172;BME280;5642;50.830;12.082;2024-01-25T00:08:04;100082.22;;;13.72;43.34
11172;BME280;5642;50.830;12.082;2024-01-25T00:10:31;100061.31;;;13.67;43.21
11172;BME280;5642;50.830;12.082;2024-01-25T00:12:58;100055.41;;;13.61;43.30
11172;BME280;5642;50.830;12.082;2024-01-25T00:15:24;100013.41;;;13.31;43.27
11172;BME280;5642;50.830;12.082;2024-01-25T00:17:51;100036.88;;;13.38;43.31
11172;BME280;5642;50.830;12.082;2024-01-25T00:20:17;100055.94;;;13.44;43.30
11172;BME280;5642;50.830;12.082;2024-01-25T00:22:44;100068.91;;;13.50;43.33
11172;BME280;5642;50.830;12.082;2024-01-25T00:25:11;100070.72;;;13.50;43.23
11172;BME280;5642;50.830;12.082;2024-01-25T00:27:37;100064.91;;;13.39;43.14
11172;BME280;5642;50.830;12.082;2024-01-25T00:30:05;100069.06;;;13.46;43.26
11172;BME280;5642;50.830;12.082;2024-01-25T00:32:32;100061.94;;;13.49;43.15
11172;BME280;5642;50.830;12.082;2024-01-25T00:35:02;100063.84;;;13.44;43.30
11172;BME280;5642;50.830;12.082;2024-01-25T00:37:29;100026.84;;;13.22;43.41
11172;BME280;5642;50.830;12.082;2024-01-25T00:39:56;100055.81;;;13.49;43.18
11172;BME280;5642;50.830;12.082;2024-01-25T00:42:23;100074.78;;;13.58;43.03
11172;BME280;5642;50.830;12.082;2024-01-25T00:44:50;100076.56;;;13.58;43.30
11172;BME280;5642;50.830;12.082;2024-01-25T00:47:17;100074.00;;;13.56;43.22
11172;BME280;5642;50.830;12.082;2024-01-25T00:49:44;100040.50;;;13.35;43.24
11172;BME280;5642;50.830;12.082;2024-01-25T00:52:11;100039.91;;;13.25;42.82
11172;BME280;5642;50.830;12.082;2024-01-25T00:54:38;100077.63;;;13.52;43.24
11172;BME280;5642;50.830;12.082;2024-01-25T00:57:07;100046.66;;;13.34;43.22
11172;BME280;5642;50.830;12.082;2024-01-25T00:59:35;100074.28;;;13.47;43.27
11172;BME280;5642;50.830;12.082;2024-01-25T01:02:04;100082.78;;;13.55;43.26
11172;BME280;5642;50.830;12.082;2024-01-25T01:04:33;100059.50;;;13.43;42.96
11172;BME280;5642;50.830;12.082;2024-01-25T01:06:59;100057.94;;;13.38;43.24
11172;BME280;5642;50.830;12.082;2024-01-25T01:09:27;100037.94;;;13.32;43.24
11172;BME280;5642;50.830;12.082;2024-01-25T01:11:54;100074.28;;;13.47;43.23
11172;BME280;5642;50.830;12.082;2024-01-25T01:14:21;100017.59;;;13.09;43.18
11172;BME280;5642;50.830;12.082;2024-01-25T01:16:49;100056.53;;;13.27;43.25
11172;BME280;5642;50.830;12.082;2024-01-25T01:19:16;100018.63;;;13.05;43.23
11172;BME280;5642;50.830;12.082;2024-01-25T01:21:44;100086.88;;;13.38;43.19
11172;BME280;5642;50.830;12.082;2024-01-25T01:24:11;100081.47;;;13.42;43.04
11172;BME280;5642;50.830;12.082;2024-01-25T01:26:38;100054.84;;;13.25;43.15
11172;BME280;5642;50.830;12.082;2024-01-25T01:29:05;100068.81;;;13.27;43.14
11172;BME280;5642;50.830;12.082;2024-01-25T01:31:32;100077.41;;;13.32;43.18
11172;BME280;5642;50.830;12.082;2024-01-25T01:33:58;100069.69;;;13.27;43.22
11172;BME280;5642;50.830;12.082;2024-01-25T01:36:24;100049.06;;;13.14;43.17
11172;BME280;5642;50.830;12.082;2024-01-25T01:38:51;100054.22;;;13.17;43.20
11172;BME280;5642;50.830;12.082;2024-01-25T01:41:18;100074.06;;;13.27;43.29
11172;BME280;5642;50.830;12.082;2024-01-25T01:43:44;100074.97;;;13.26;43.24
11172;BME280;5642;50.830;12.082;2024-01-25T01:46:20;99994.00;;;12.80;43.02
11172;BME280;5642;50.830;12.082;2024-01-25T01:48:50;100060.50;;;13.11;43.26
11172;BME280;5642;50.830;12.082;2024-01-25T01:51:17;100087.44;;;13.21;43.30
11172;BME280;5642;50.830;12.082;2024-01-25T01:53:45;100083.06;;;13.20;43.30
11172;BME280;5642;50.830;12.082;2024-01-25T01:56:14;100080.56;;;13.15;43.32
11172;BME280;5642;50.830;12.082;2024-01-25T01:58:41;100006.47;;;12.73;43.51
11172;BME280;5642;50.830;12.082;2024-01-25T02:01:07;100028.31;;;12.75;43.74
11172;BME280;5642;50.830;12.082;2024-01-25T02:03:35;100052.88;;;12.74;43.54
11172;BME280;5642;50.830;12.082;2024-01-25T02:06:02;99981.84;;;12.19;43.64
11172;BME280;5642;50.830;12.082;2024-01-25T02:08:29;100023.41;;;12.35;43.58
11172;BME280;5642;50.830;12.082;2024-01-25T02:10:56;100050.59;;;12.33;43.79
11172;BME280;5642;50.830;12.082;2024-01-25T02:13:25;100010.22;;;12.06;43.85
11172;BME280;5642;50.830;12.082;2024-01-25T02:15:53;100083.72;;;12.38;43.84
11172;BME280;5642;50.830;12.082;2024-01-25T02:18:19;100065.09;;;12.15;43.87
11172;BME280;5642;50.830;12.082;2024-01-25T02:20:46;100068.75;;;12.09;43.80
11172;BME280;5642;50.830;12.082;2024-01-25T02:23:14;100071.38;;;12.09;44.02
11172;BME280;5642;50.830;12.082;2024-01-25T02:25:41;100086.09;;;12.15;44.13
11172;BME280;5642;50.830;12.082;2024-01-25T02:28:07;100076.59;;;12.11;43.91
11172;BME280;5642;50.830;12.082;2024-01-25T02:30:34;100082.72;;;12.11;44.06
11172;BME280;5642;50.830;12.082;2024-01-25T02:33:01;100059.34;;;12.01;44.19
11172;BME280;5642;50.830;12.082;2024-01-25T02:35:28;100061.19;;;11.99;43.91
11172;BME280;5642;50.830;12.082;2024-01-25T02:37:54;100043.78;;;11.95;43.52
11172;BME280;5642;50.830;12.082;2024-01-25T02:40:20;100072.41;;;12.04;44.00
11172;BME280;5642;50.830;12.082;2024-01-25T02:42:47;100084.56;;;12.08;43.80
11172;BME280;5642;50.830;12.082;2024-01-25T02:45:14;100095.13;;;12.06;43.75
11172;BME280;5642;50.830;12.082;2024-01-25T02:47:41;100083.16;;;11.95;43.90
11172;BME280;5642;50.830;12.082;2024-01-25T02:50:09;100070.19;;;11.89;44.00
11172;BME280;5642;50.830;12.082;2024-01-25T02:52:35;100097.81;;;12.03;43.66
11172;BME280;5642;50.830;12.082;2024-01-25T02:55:02;100084.91;;;11.94;43.71
11172;BME280;5642;50.830;12.082;2024-01-25T02:57:30;100091.69;;;12.03;43.96
11172;BME280;5642;50.830;12.082;2024-01-25T02:59:57;100071.00;;;11.92;43.83
11172;BME280;5642;50.830;12.082;2024-01-25T03:02:24;100067.59;;;11.87;43.68
11172;BME280;5642;50.830;12.082;2024-01-25T03:04:52;100083.16;;;11.95;44.00
11172;BME280;5642;50.830;12.082;2024-01-25T03:07:19;100033.22;;;11.64;43.98
11172;BME280;5642;50.830;12.082;2024-01-25T03:09:45;100037.63;;;11.62;44.04
11172;BME280;5642;50.830;12.082;2024-01-25T03:12:13;100062.56;;;11.80;44.12
11172;BME280;5642;50.830;12.082;2024-01-25T03:14:39;100085.94;;;11.89;43.89
11172;BME280;5642;50.830;12.082;2024-01-25T03:17:05;100077.25;;;11.87;44.04
11172;BME280;5642;50.830;12.082;2024-01-25T03:19:33;100035.19;;;11.54;43.86
11172;BME280;5642;50.830;12.082;2024-01-25T03:22:00;100079.84;;;11.88;43.77
11172;BME280;5642;50.830;12.082;2024-01-25T03:24:27;100046.88;;;11.78;43.64
11172;BME280;5642;50.830;12.082;2024-01-25T03:26:55;100073.78;;;11.86;43.83
11172;BME280;5642;50.830;12.082;2024-01-25T03:29:21;100059.28;;;11.70;43.99
11172;BME280;5642;50.830;12.082;2024-01-25T03:31:49;100067.19;;;11.68;43.95
11172;BME280;5642;50.830;12.082;2024-01-25T03:34:16;100106.88;;;11.92;43.73
11172;BME280;5642;50.830;12.082;2024-01-25T03:36:44;100115.66;;;11.91;43.83
11172;BME280;5642;50.830;12.082;2024-01-25T03:39:10;100105.22;;;11.88;44.07
11172;BME280;5642;50.830;12.082;2024-01-25T03:41:40;100103.72;;;11.79;44.08
11172;BME280;5642;50.830;12.082;2024-01-25T03:44:06;100033.06;;;11.36;44.24
11172;BME280;5642;50.830;12.082;2024-01-25T03:46:32;100071.75;;;11.62;44.11
11172;BME280;5642;50.830;12.082;2024-01-25T03:48:58;100108.81;;;11.85;43.88
11172;BME280;5642;50.830;12.082;2024-01-25T03:51:25;100102.78;;;11.80;44.01
11172;BME280;5642;50.830;12.082;2024-01-25T03:53:52;100113.81;;;11.94;43.82
11172;BME280;5642;50.830;12.082;2024-01-25T03:56:21;100104.00;;;12.01;44.05
11172;BME280;5642;50.830;12.082;2024-01-25T03:58:50;100104.94;;;12.00;44.14
11172;BME280;5642;50.830;12.082;2024-01-25T04:01:16;100068.81;;;11.75;43.85
11172;BME280;5642;50.830;12.082;2024-01-25T04:03:42;100116.38;;;11.97;43.95
11172;BME280;5642;50.830;12.082;2024-01-25T04:06:10;100098.13;;;11.93;43.98
11172;BME280;5642;50.830;12.082;2024-01-25T04:08:40;100079.34;;;11.74;43.88
11172;BME280;5642;50.830;12.082;2024-01-25T04:11:06;100093.84;;;11.87;43.97
11172;BME280;5642;50.830;12.082;2024-01-25T04:13:35;100109.22;;;12.02;43.89
11172;BME280;5642;50.830;12.082;2024-01-25T04:16:01;100101.28;;;12.05;43.68
11172;BME280;5642;50.830;12.082;2024-01-25T04:18:29;100085.72;;;11.98;43.73
11172;BME280;5642;50.830;12.082;2024-01-25T04:20:56;100133.34;;;12.16;43.92
11172;BME280;5642;50.830;12.082;2024-01-25T04:23:22;100115.44;;;12.00;43.97
11172;BME280;5642;50.830;12.082;2024-01-25T04:25:48;100138.09;;;12.02;44.13
11172;BME280;5642;50.830;12.082;2024-01-25T04:28:16;100135.50;;;12.01;43.90
11172;BME280;5642;50.830;12.082;2024-01-25T04:30:43;100150.38;;;12.02;43.95
11172;BME280;5642;50.830;12.082;2024-01-25T04:33:09;100128.00;;;11.87;44.13
11172;BME280;5642;50.830;12.082;2024-01-25T04:35:35;100122.03;;;11.81;43.83
11172;BME280;5642;50.830;12.082;2024-01-25T04:38:01;100085.06;;;11.54;43.85
11172;BME280;5642;50.830;12.082;2024-01-25T04:40:27;100118.78;;;11.69;44.01
11172;BME280;5642;50.830;12.082;2024-01-25T04:42:54;100102.41;;;11.60;43.99
11172;BME280;5642;50.830;12.082;2024-01-25T04:45:20;100144.00;;;11.78;44.07
11172;BME280;5642;50.830;12.082;2024-01-25T04:47:47;100166.78;;;11.76;44.21
11172;BME280;5642;50.830;12.082;2024-01-25T04:50:13;100088.22;;;11.31;44.19
11172;BME280;5642;50.830;12.082;2024-01-25T04:52:40;100139.59;;;11.42;44.43
11172;BME280;5642;50.830;12.082;2024-01-25T04:55:07;100191.47;;;11.66;44.30
11172;BME280;5642;50.830;12.082;2024-01-25T04:57:33;100175.28;;;11.49;44.36
11172;BME280;5642;50.830;12.082;2024-01-25T05:00:00;100197.72;;;11.60;44.21
11172;BME280;5642;50.830;12.082;2024-01-25T05:02:27;100184.72;;;11.56;44.22
11172;BME280;5642;50.830;12.082;2024-01-25T05:04:54;100188.41;;;11.49;44.51
11172;BME280;5642;50.830;12.082;2024-01-25T05:07:20;100200.47;;;11.56;44.46
11172;BME280;5642;50.830;12.082;2024-01-25T05:09:50;100216.97;;;11.61;44.12
11172;BME280;5642;50.830;12.082;2024-01-25T05:12:17;100211.56;;;11.67;44.14
11172;BME280;5642;50.830;12.082;2024-01-25T05:14:44;100100.22;;;11.05;44.07
11172;BME280;5642;50.830;12.082;2024-01-25T05:17:14;100201.06;;;11.67;43.96
11172;BME280;5642;50.830;12.082;2024-01-25T05:19:40;100175.88;;;11.60;43.98
11172;BME280;5642;50.830;12.082;2024-01-25T05:22:07;100184.56;;;11.63;43.73
11172;BME280;5642;50.830;12.082;2024-01-25T05:24:34;100156.78;;;11.53;43.47
11172;BME280;5642;50.830;12.082;2024-01-25T05:27:00;100208.50;;;11.87;43.76
11172;BME280;5642;50.830;12.082;2024-01-25T05:29:28;100241.31;;;12.06;43.63
11172;BME280;5642;50.830;12.082;2024-01-25T05:31:55;100246.25;;;12.18;43.82
11172;BME280;5642;50.830;12.082;2024-01-25T05:34:22;100251.44;;;12.21;43.69
11172;BME280;5642;50.830;12.082;2024-01-25T05:36:49;100248.66;;;12.27;43.74
11172;BME280;5642;50.830;12.082;2024-01-25T05:39:16;100243.56;;;12.21;43.56
11172;BME280;5642;50.830;12.082;2024-01-25T05:41:43;100211.56;;;12.05;43.52
11172;BME280;5642;50.830;12.082;2024-01-25T05:44:12;100205.31;;;12.09;43.38
11172;BME280;5642;50.830;12.082;2024-01-25T05:46:39;100212.16;;;12.16;43.79
11172;BME280;5642;50.830;12.082;2024-01-25T05:49:07;100255.31;;;12.40;43.65
11172;BME280;5642;50.830;12.082;2024-01-25T05:51:33;100190.75;;;11.98;43.43
11172;BME280;5642;50.830;12.082;2024-01-25T05:54:00;100227.75;;;12.23;43.20
11172;BME280;5642;50.830;12.082;2024-01-25T05:56:26;100253.44;;;12.45;43.81
11172;BME280;5642;50.830;12.082;2024-01-25T05:58:53;100177.75;;;11.93;43.49
11172;BME280;5642;50.830;12.082;2024-01-25T06:01:22;100241.53;;;12.32;43.70
11172;BME280;5642;50.830;12.082;2024-01-25T06:03:49;100266.72;;;12.41;43.70
11172;BME280;5642;50.830;12.082;2024-01-25T06:06:16;100279.66;;;12.48;43.66
11172;BME280;5642;50.830;12.082;2024-01-25T06:08:43;100289.28;;;12.48;43.57
11172;BME280;5642;50.830;12.082;2024-01-25T06:11:10;100256.38;;;12.33;43.51
11172;BME280;5642;50.830;12.082;2024-01-25T06:13:37;100206.56;;;11.95;43.45
11172;BME280;5642;50.830;12.082;2024-01-25T06:16:03;100235.72;;;12.20;43.64
11172;BME280;5642;50.830;12.082;2024-01-25T06:18:31;100258.22;;;12.30;43.52
11172;BME280;5642;50.830;12.082;2024-01-25T06:21:00;100260.72;;;12.36;43.64
11172;BME280;5642;50.830;12.082;2024-01-25T06:23:28;100312.63;;;12.60;43.39
11172;BME280;5642;50.830;12.082;2024-01-25T06:25:54;100221.19;;;12.05;43.57
11172;BME280;5642;50.830;12.082;2024-01-25T06:28:21;100240.09;;;12.19;43.64
11172;BME280;5642;50.830;12.082;2024-01-25T06:30:48;100308.66;;;12.44;43.21
11172;BME280;5642;50.830;12.082;2024-01-25T06:33:15;100338.06;;;12.58;43.28
11172;BME280;5642;50.830;12.082;2024-01-25T06:35:43;100293.19;;;12.32;43.28
11172;BME280;5642;50.830;12.082;2024-01-25T06:38:09;100296.56;;;12.37;43.33
11172;BME280;5642;50.830;12.082;2024-01-25T06:40:35;100321.66;;;12.50;43.39
11172;BME280;5642;50.830;12.082;2024-01-25T06:43:02;100321.56;;;12.53;43.57
11172;BME280;5642;50.830;12.082;2024-01-25T06:45:28;100315.63;;;12.45;43.42
11172;BME280;5642;50.830;12.082;2024-01-25T06:48:07;100268.31;;;12.11;43.48
11172;BME280;5642;50.830;12.082;2024-01-25T06:50:34;100303.91;;;12.23;43.35
11172;BME280;5642;50.830;12.082;2024-01-25T06:53:03;100280.63;;;12.09;43.65
11172;BME280;5642;50.830;12.082;2024-01-25T06:55:36;100249.56;;;11.91;43.38
11172;BME280;5642;50.830;12.082;2024-01-25T06:58:13;100265.16;;;11.97;43.27
11172;BME280;5642;50.830;12.082;2024-01-25T07:00:40;100316.97;;;12.27;43.32
11172;BME280;5642;50.830;12.082;2024-01-25T07:03:08;100305.66;;;12.24;43.48
11172;BME280;5642;50.830;12.082;2024-01-25T07:05:36;100280.72;;;12.04;43.57
11172;BME280;5642;50.830;12.082;2024-01-25T07:08:03;100305.75;;;12.21;43.12
11172;BME280;5642;50.830;12.082;2024-01-25T07:10:30;100289.44;;;12.06;43.45
11172;BME280;5642;50.830;12.082;2024-01-25T07:12:57;100335.34;;;12.27;43.21
11172;BME280;5642;50.830;12.082;2024-01-25T07:15:23;100304.38;;;12.04;43.30
11172;BME280;5642;50.830;12.082;2024-01-25T07:17:50;100262.97;;;11.79;43.36
11172;BME280;5642;50.830;12.082;2024-01-25T07:20:20;100286.22;;;11.94;43.34
11172;BME280;5642;50.830;12.082;2024-01-25T07:22:59;100248.25;;;11.70;43.15
11172;BME280;5642;50.830;12.082;2024-01-25T07:25:46;100320.13;;;12.04;43.28
11172;BME280;5642;50.830;12.082;2024-01-25T07:28:12;100298.56;;;11.90;43.38
11172;BME280;5642;50.830;12.082;2024-01-25T07:30:47;100360.75;;;12.27;43.38
11172;BME280;5642;50.830;12.082;2024-01-25T07:33:16;100296.06;;;11.86;43.20
11172;BME280;5642;50.830;12.082;2024-01-25T07:35:52;100354.66;;;12.25;42.90
11172;BME280;5642;50.830;12.082;2024-01-25T07:38:24;100364.13;;;12.32;42.92
11172;BME280;5642;50.830;12.082;2024-01-25T07:41:09;100319.22;;;12.05;43.32
11172;BME280;5642;50.830;12.082;2024-01-25T07:43:40;100365.03;;;12.31;43.13
11172;BME280;5642;50.830;12.082;2024-01-25T07:46:10;100324.47;;;12.07;42.76
11172;BME280;5642;50.830;12.082;2024-01-25T07:48:45;100403.91;;;12.53;43.09
11172;BME280;5642;50.830;12.082;2024-01-25T07:51:14;100374.28;;;12.47;43.01
11172;BME280;5642;50.830;12.082;2024-01-25T07:53:41;100307.66;;;12.14;42.88
11172;BME280;5642;50.830;12.082;2024-01-25T07:56:14;100405.25;;;12.71;42.78
11172;BME280;5642;50.830;12.082;2024-01-25T07:58:44;100335.19;;;12.35;43.06
11172;BME280;5642;50.830;12.082;2024-01-25T08:01:17;100315.28;;;12.23;42.81
11172;BME280;5642;50.830;12.082;2024-01-25T08:03:59;100306.53;;;12.23;43.01
11172;BME280;5642;50.830;12.082;2024-01-25T08:06:26;100339.47;;;12.37;43.03
11172;BME280;5642;50.830;12.082;2024-01-25T08:08:57;100372.19;;;12.61;42.91
11172;BME280;5642;50.830;12.082;2024-01-25T08:11:24;100344.63;;;12.42;43.12
11172;BME280;5642;50.830;12.082;2024-01-25T08:13:54;100390.31;;;12.72;42.82
11172;BME280;5642;50.830;12.082;2024-01-25T08:16:27;100361.81;;;12.55;42.73
11172;BME280;5642;50.830;12.082;2024-01-25T08:18:59;100358.47;;;12.50;43.03
11172;BME280;5642;50.830;12.082;2024-01-25T08:21:37;100351.38;;;12.52;42.79
11172;BME280;5642;50.830;12.082;2024-01-25T08:24:04;100382.41;;;12.72;42.53
11172;BME280;5642;50.830;12.082;2024-01-25T08:26:54;100429.69;;;13.09;42.97
11172;BME280;5642;50.830;12.082;2024-01-25T08:29:20;100413.13;;;13.07;42.77
11172;BME280;5642;50.830;12.082;2024-01-25T08:31:49;100424.19;;;13.21;42.49
11172;BME280;5642;50.830;12.082;2024-01-25T08:34:16;100430.81;;;13.36;42.51
11172;BME280;5642;50.830;12.082;2024-01-25T08:36:44;100431.53;;;13.41;42.53
11172;BME280;5642;50.830;12.082;2024-01-25T08:39:12;100341.50;;;12.95;42.31
11172;BME280;5642;50.830;12.082;2024-01-25T08:41:41;100411.25;;;13.44;42.20
11172;BME280;5642;50.830;12.082;2024-01-25T08:44:08;100366.91;;;13.29;42.09
11172;BME280;5642;50.830;12.082;2024-01-25T08:46:35;100423.63;;;13.71;42.07
11172;BME280;5642;50.830;12.082;2024-01-25T08:49:02;100395.03;;;13.59;42.02
11172;BME280;5642;50.830;12.082;2024-01-25T08:51:36;100433.75;;;13.87;42.16
11172;BME280;5642;50.830;12.082;2024-01-25T08:54:02;100355.75;;;13.52;41.90
11172;BME280;5642;50.830;12.082;2024-01-25T08:56:32;100364.81;;;13.72;41.92
11172;BME280;5642;50.830;12.082;2024-01-25T08:58:59;100430.19;;;14.19;41.80
11172;BME280;5642;50.830;12.082;2024-01-25T09:01:26;100425.41;;;14.31;41.38
11172;BME280;5642;50.830;12.082;2024-01-25T09:03:52;100357.50;;;14.11;41.53
11172;BME280;5642;50.830;12.082;2024-01-25T09:06:19;100356.28;;;14.22;41.48
11172;BME280;5642;50.830;12.082;2024-01-25T09:08:46;100348.13;;;14.29;41.43
11172;BME280;5642;50.830;12.082;2024-01-25T09:11:13;100438.16;;;14.99;41.21
11172;BME280;5642;50.830;12.082;2024-01-25T09:13:40;100334.56;;;14.69;40.89
11172;BME280;5642;50.830;12.082;2024-01-25T09:16:11;100437.19;;;15.28;40.88
11172;BME280;5642;50.830;12.082;2024-01-25T09:18:37;100430.75;;;15.37;40.87
11172;BME280;5642;50.830;12.082;2024-01-25T09:21:03;100391.53;;;15.26;40.92
11172;BME280;5642;50.830;12.082;2024-01-25T09:23:34;100446.84;;;15.55;41.05
11172;BME280;5642;50.830;12.082;2024-01-25T09:26:01;100419.53;;;15.30;40.98
11172;BME280;5642;50.830;12.082;2024-01-25T09:28:28;100432.94;;;15.24;41.16
11172;BME280;5642;50.830;12.082;2024-01-25T09:30:54;100445.28;;;15.23;41.27
11172;BME280;5642;50.830;12.082;2024-01-25T09:33:24;100452.72;;;15.12;41.30
11172;BME280;5642;50.830;12.082;2024-01-25T09:35:50;100420.38;;;14.79;41.31
11172;BME280;5642;50.830;12.082;2024-01-25T09:38:19;100410.88;;;14.74;41.19
11172;BME280;5642;50.830;12.082;2024-01-25T09:40:45;100391.94;;;14.63;41.27
11172;BME280;5642;50.830;12.082;2024-01-25T09:43:13;100453.47;;;14.89;41.33
11172;BME280;5642;50.830;12.082;2024-01-25T09:45:41;100413.69;;;14.69;41.23
11172;BME280;5642;50.830;12.082;2024-01-25T09:48:07;100487.59;;;15.20;41.13
11172;BME280;5642;50.830;12.082;2024-01-25T09:50:38;100426.00;;;14.95;41.11
11172;BME280;5642;50.830;12.082;2024-01-25T09:53:05;100423.84;;;15.06;40.91
11172;BME280;5642;50.830;12.082;2024-01-25T09:55:43;100396.94;;;14.97;40.75
11172;BME280;5642;50.830;12.082;2024-01-25T09:58:19;100399.84;;;15.14;41.04
11172;BME280;5642;50.830;12.082;2024-01-25T10:00:46;100420.69;;;15.21;40.78
11172;BME280;5642;50.830;12.082;2024-01-25T10:03:13;100451.59;;;15.44;40.75
11172;BME280;5642;50.830;12.082;2024-01-25T10:05:40;100478.16;;;15.66;40.60
11172;BME280;5642;50.830;12.082;2024-01-25T10:08:12;100497.94;;;15.79;40.52
11172;BME280;5642;50.830;12.082;2024-01-25T10:10:39;100489.78;;;15.85;40.51
11172;BME280;5642;50.830;12.082;2024-01-25T10:13:12;100494.06;;;15.89;40.37
11172;BME280;5642;50.830;12.082;2024-01-25T10:15:42;100481.53;;;15.94;40.49
11172;BME280;5642;50.830;12.082;2024-01-25T10:18:11;100496.00;;;16.08;40.38
11172;BME280;5642;50.830;12.082;2024-01-25T10:20:44;100496.66;;;16.14;40.08
11172;BME280;5642;50.830;12.082;2024-01-25T10:23:11;100488.72;;;16.14;40.27
11172;BME280;5642;50.830;12.082;2024-01-25T10:25:38;100506.25;;;16.17;40.26
11172;BME280;5642;50.830;12.082;2024-01-25T10:28:05;100491.44;;;16.13;40.22
11172;BME280;5642;50.830;12.082;2024-01-25T10:30:36;100401.97;;;15.55;40.15
11172;BME280;5642;50.830;12.082;2024-01-25T10:33:02;100400.75;;;15.39;40.26
11172;BME280;5642;50.830;12.082;2024-01-25T10:35:34;100489.78;;;15.85;40.31
11172;BME280;5642;50.830;12.082;2024-01-25T10:38:04;100497.56;;;15.65;40.25
11172;BME280;5642;50.830;12.082;2024-01-25T10:40:34;100429.41;;;15.25;40.45
11172;BME280;5642;50.830;12.082;2024-01-25T10:43:02;100468.09;;;15.26;40.47
11172;BME280;5642;50.830;12.082;2024-01-25T10:45:29;100433.00;;;14.96;40.37
11172;BME280;5642;50.830;12.082;2024-01-25T10:48:06;100511.06;;;15.29;40.46
11172;BME280;5642;50.830;12.082;2024-01-25T10:50:33;100507.72;;;15.24;40.51
11172;BME280;5642;50.830;12.082;2024-01-25T10:53:00;100493.03;;;15.16;40.41
11172;BME280;5642;50.830;12.082;2024-01-25T10:55:28;100449.78;;;14.94;40.36
11172;BME280;5642;50.830;12.082;2024-01-25T10:57:57;100488.59;;;15.43;40.44
11172;BME280;5642;50.830;12.082;2024-01-25T11:00:23;100423.47;;;15.18;40.47
11172;BME280;5642;50.830;12.082;2024-01-25T11:02:50;100483.06;;;15.77;40.36
11172;BME280;5642;50.830;12.082;2024-01-25T11:05:17;100419.94;;;15.69;40.24
11172;BME280;5642;50.830;12.082;2024-01-25T11:07:47;100411.06;;;16.40;40.17
11172;BME280;5642;50.830;12.082;2024-01-25T11:10:19;100471.38;;;17.59;40.15
11172;BME280;5642;50.830;12.082;2024-01-25T11:12:57;100474.84;;;18.39;39.97
11172;BME280;5642;50.830;12.082;2024-01-25T11:15:34;100467.41;;;19.20;40.12
11172;BME280;5642;50.830;12.082;2024-01-25T11:18:04;100437.53;;;19.83;39.96
11172;BME280;5642;50.830;12.082;2024-01-25T11:20:35;100443.19;;;20.59;39.90
11172;BME280;5642;50.830;12.082;2024-01-25T11:23:06;100433.72;;;21.15;39.81
11172;BME280;5642;50.830;12.082;2024-01-25T11:25:44;100372.69;;;21.26;39.54
11172;BME280;5642;50.830;12.082;2024-01-25T11:28:15;100421.53;;;21.99;39.39
11172;BME280;5642;50.830;12.082;2024-01-25T11:30:45;100383.19;;;22.28;39.19
11172;BME280;5642;50.830;12.082;2024-01-25T11:33:14;100420.28;;;23.00;39.18
11172;BME280;5642;50.830;12.082;2024-01-25T11:35:54;100381.34;;;23.09;38.93
11172;BME280;5642;50.830;12.082;2024-01-25T11:38:24;100400.75;;;23.25;39.04
11172;BME280;5642;50.830;12.082;2024-01-25T11:40:50;100372.69;;;23.06;39.21
11172;BME280;5642;50.830;12.082;2024-01-25T11:43:24;100378.97;;;22.92;38.47
11172;BME280;5642;50.830;12.082;2024-01-25T11:45:52;100410.00;;;22.94;38.65
11172;BME280;5642;50.830;12.082;2024-01-25T11:48:19;100403.44;;;22.86;38.28
11172;BME280;5642;50.830;12.082;2024-01-25T11:50:47;100409.19;;;22.80;38.18
11172;BME280;5642;50.830;12.082;2024-01-25T11:53:20;100374.59;;;22.64;37.87
11172;BME280;5642;50.830;12.082;2024-01-25T11:55:47;100430.19;;;22.98;37.49
11172;BME280;5642;50.830;12.082;2024-01-25T11:58:14;100419.63;;;22.56;37.06
11172;BME280;5642;50.830;12.082;2024-01-25T12:00:44;100406.91;;;22.33;36.62
11172;BME280;5642;50.830;12.082;2024-01-25T12:03:17;100449.03;;;22.42;36.26
11172;BME280;5642;50.830;12.082;2024-01-25T12:05:46;100357.50;;;21.56;35.86
11172;BME280;5642;50.830;12.082;2024-01-25T12:08:14;100392.50;;;21.36;35.87
11172;BME280;5642;50.830;12.082;2024-01-25T12:10:43;100443.19;;;21.04;36.29
11172;BME280;5642;50.830;12.082;2024-01-25T12:13:09;100432.94;;;20.36;36.05
11172;BME280;5642;50.830;12.082;2024-01-25T12:15:36;100418.34;;;19.61;36.56
11172;BME280;5642;50.830;12.082;2024-01-25T12:18:06;100470.72;;;19.25;36.98
11172;BME280;5642;50.830;12.082;2024-01-25T12:20:36;100472.78;;;18.65;37.32
11172;BME280;5642;50.830;12.082;2024-01-25T12:23:03;100413.44;;;17.91;37.54
11172;BME280;5642;50.830;12.082;2024-01-25T12:25:39;100459.66;;;17.85;37.75
11172;BME280;5642;50.830;12.082;2024-01-25T12:28:10;100408.34;;;17.27;37.77
11172;BME280;5642;50.830;12.082;2024-01-25T12:30:37;100419.44;;;17.15;37.96
11172;BME280;5642;50.830;12.082;2024-01-25T12:33:04;100480.50;;;17.32;38.04
11172;BME280;5642;50.830;12.082;2024-01-25T12:35:31;100441.59;;;16.92;38.10
11172;BME280;5642;50.830;12.082;2024-01-25T12:38:03;100464.19;;;17.01;38.03
11172;BME280;5642;50.830;12.082;2024-01-25T12:40:29;100466.41;;;16.90;38.24
11172;BME280;5642;50.830;12.082;2024-01-25T12:42:55;100465.25;;;16.75;38.00
11172;BME280;5642;50.830;12.082;2024-01-25T12:45:22;100448.91;;;16.64;38.05
11172;BME280;5642;50.830;12.082;2024-01-25T12:47:48;100422.50;;;16.40;38.13
11172;BME280;5642;50.830;12.082;2024-01-25T12:50:14;100461.44;;;16.59;38.25
11172;BME280;5642;50.830;12.082;2024-01-25T12:52:41;100456.69;;;16.45;38.10
11172;BME280;5642;50.830;12.082;2024-01-25T12:55:07;100434.81;;;16.18;38.32